Terminal Aerodrome Forecast
Issued by NWS

Home | Current Version | Previous Version | Text Only | Print | Product List | Glossary On
Versions: 1 2 3 4 5 6 7 8 9 10 11 12 13 14 15 16 17 18 19 20 21 22 23 24 25 26 27 28 29 30 31 32 33 34
000
FTUS43 KDTX 181120
TAFPTK
TAF
KPTK 181120Z 1812/1912 30005KT 5SM BR BKN008 OVC022
     FM181500 30007KT P6SM BKN025 OVC040
     FM182000 33008KT P6SM SCT040 BKN200
     FM190100 03008KT P6SM SCT025 OVC100
     FM190500 06013KT 2SM -SN OVC015
     FM191000 05014KT 1 1/2SM -SN OVC009=

USA.gov is the U.S. government's official web portal to all federal, state and local government web resources and services.